sensor_id;sensor_type;location;lat;lon;timestamp;P1;durP1;ratioP1;P2;durP2;ratioP2
51636;SDS011;37713;53.254;6.460;2024-03-02T00:00:14;6.65;;;3.17;;
51636;SDS011;37713;53.254;6.460;2024-03-02T00:02:43;6.57;;;3.30;;
51636;SDS011;37713;53.254;6.460;2024-03-02T00:05:10;6.35;;;3.00;;
51636;SDS011;37713;53.254;6.460;2024-03-02T00:07:37;5.88;;;3.30;;
51636;SDS011;37713;53.254;6.460;2024-03-02T00:10:07;6.82;;;3.40;;
51636;SDS011;37713;53.254;6.460;2024-03-02T00:12:37;6.00;;;3.55;;
51636;SDS011;37713;53.254;6.460;2024-03-02T00:15:47;7.53;;;3.30;;
51636;SDS011;37713;53.254;6.460;2024-03-02T00:18:13;5.45;;;3.28;;
51636;SDS011;37713;53.254;6.460;2024-03-02T00:20:44;6.45;;;3.45;;
51636;SDS011;37713;53.254;6.460;2024-03-02T00:23:10;6.43;;;3.40;;
51636;SDS011;37713;53.254;6.460;2024-03-02T00:25:41;6.28;;;3.58;;
51636;SDS011;37713;53.254;6.460;2024-03-02T00:28:13;8.50;;;3.70;;
51636;SDS011;37713;53.254;6.460;2024-03-02T00:33:45;6.40;;;3.70;;
51636;SDS011;37713;53.254;6.460;2024-03-02T00:36:13;7.00;;;3.45;;
51636;SDS011;37713;53.254;6.460;2024-03-02T00:38:50;6.65;;;3.40;;
51636;SDS011;37713;53.254;6.460;2024-03-02T00:41:29;8.43;;;3.72;;
51636;SDS011;37713;53.254;6.460;2024-03-02T00:44:00;7.35;;;3.70;;
51636;SDS011;37713;53.254;6.460;2024-03-02T00:46:37;9.07;;;3.65;;
51636;SDS011;37713;53.254;6.460;2024-03-02T00:49:17;6.50;;;3.42;;
51636;SDS011;37713;53.254;6.460;2024-03-02T00:51:46;7.25;;;3.80;;
51636;SDS011;37713;53.254;6.460;2024-03-02T00:54:20;6.20;;;3.38;;
51636;SDS011;37713;53.254;6.460;2024-03-02T00:56:51;6.80;;;3.33;;
51636;SDS011;37713;53.254;6.460;2024-03-02T00:59:23;6.50;;;3.47;;
51636;SDS011;37713;53.254;6.460;2024-03-02T01:01:49;6.10;;;3.17;;
51636;SDS011;37713;53.254;6.460;2024-03-02T01:04:15;8.52;;;3.42;;
51636;SDS011;37713;53.254;6.460;2024-03-02T01:06:42;7.00;;;3.63;;
51636;SDS011;37713;53.254;6.460;2024-03-02T01:09:08;7.47;;;3.70;;
51636;SDS011;37713;53.254;6.460;2024-03-02T01:11:34;7.30;;;3.42;;
51636;SDS011;37713;53.254;6.460;2024-03-02T01:14:00;8.23;;;3.80;;
51636;SDS011;37713;53.254;6.460;2024-03-02T01:16:26;6.43;;;3.35;;
51636;SDS011;37713;53.254;6.460;2024-03-02T01:18:52;7.32;;;3.53;;
51636;SDS011;37713;53.254;6.460;2024-03-02T01:21:18;6.40;;;3.30;;
51636;SDS011;37713;53.254;6.460;2024-03-02T01:23:44;6.18;;;3.03;;
51636;SDS011;37713;53.254;6.460;2024-03-02T01:26:10;7.88;;;3.70;;
51636;SDS011;37713;53.254;6.460;2024-03-02T01:28:35;5.90;;;3.30;;
51636;SDS011;37713;53.254;6.460;2024-03-02T01:31:01;6.55;;;3.88;;
51636;SDS011;37713;53.254;6.460;2024-03-02T01:33:27;7.20;;;3.65;;
51636;SDS011;37713;53.254;6.460;2024-03-02T01:35:53;7.05;;;3.65;;
51636;SDS011;37713;53.254;6.460;2024-03-02T01:38:19;7.25;;;3.35;;
51636;SDS011;37713;53.254;6.460;2024-03-02T01:40:45;7.60;;;3.60;;
51636;SDS011;37713;53.254;6.460;2024-03-02T01:43:12;8.02;;;3.92;;
51636;SDS011;37713;53.254;6.460;2024-03-02T01:45:38;6.53;;;3.65;;
51636;SDS011;37713;53.254;6.460;2024-03-02T01:48:06;8.07;;;3.83;;
51636;SDS011;37713;53.254;6.460;2024-03-02T01:50:33;7.32;;;3.90;;
51636;SDS011;37713;53.254;6.460;2024-03-02T01:52:59;7.32;;;3.67;;
51636;SDS011;37713;53.254;6.460;2024-03-02T01:55:27;7.32;;;3.55;;
51636;SDS011;37713;53.254;6.460;2024-03-02T01:57:58;6.40;;;3.55;;
51636;SDS011;37713;53.254;6.460;2024-03-02T02:00:24;7.47;;;3.92;;
51636;SDS011;37713;53.254;6.460;2024-03-02T02:02:51;7.13;;;3.55;;
51636;SDS011;37713;53.254;6.460;2024-03-02T02:05:18;8.05;;;3.88;;
51636;SDS011;37713;53.254;6.460;2024-03-02T02:07:44;7.07;;;3.67;;
51636;SDS011;37713;53.254;6.460;2024-03-02T02:10:10;6.43;;;3.72;;
51636;SDS011;37713;53.254;6.460;2024-03-02T02:12:36;7.57;;;3.03;;
51636;SDS011;37713;53.254;6.460;2024-03-02T02:15:03;5.80;;;3.00;;
51636;SDS011;37713;53.254;6.460;2024-03-02T02:17:47;6.75;;;3.40;;
51636;SDS011;37713;53.254;6.460;2024-03-02T02:20:13;8.27;;;3.58;;
51636;SDS011;37713;53.254;6.460;2024-03-02T02:22:39;9.50;;;3.60;;
51636;SDS011;37713;53.254;6.460;2024-03-02T02:25:05;5.60;;;3.10;;
51636;SDS011;37713;53.254;6.460;2024-03-02T02:27:31;6.03;;;3.30;;
51636;SDS011;37713;53.254;6.460;2024-03-02T02:29:57;6.82;;;3.47;;
51636;SDS011;37713;53.254;6.460;2024-03-02T02:32:23;7.07;;;3.30;;
51636;SDS011;37713;53.254;6.460;2024-03-02T02:34:52;9.70;;;3.42;;
51636;SDS011;37713;53.254;6.460;2024-03-02T02:37:18;6.03;;;3.20;;
51636;SDS011;37713;53.254;6.460;2024-03-02T02:39:44;6.90;;;3.58;;
51636;SDS011;37713;53.254;6.460;2024-03-02T02:42:11;7.40;;;3.47;;
51636;SDS011;37713;53.254;6.460;2024-03-02T02:44:37;6.85;;;3.17;;
51636;SDS011;37713;53.254;6.460;2024-03-02T02:47:03;6.57;;;3.15;;
51636;SDS011;37713;53.254;6.460;2024-03-02T02:49:30;7.72;;;3.30;;
51636;SDS011;37713;53.254;6.460;2024-03-02T02:51:57;6.15;;;3.35;;
51636;SDS011;37713;53.254;6.460;2024-03-02T02:54:23;6.45;;;3.00;;
51636;SDS011;37713;53.254;6.460;2024-03-02T02:56:49;6.32;;;3.17;;
51636;SDS011;37713;53.254;6.460;2024-03-02T02:59:15;6.50;;;3.05;;
51636;SDS011;37713;53.254;6.460;2024-03-02T03:01:41;6.75;;;3.22;;
51636;SDS011;37713;53.254;6.460;2024-03-02T03:04:07;7.22;;;3.42;;
51636;SDS011;37713;53.254;6.460;2024-03-02T03:06:33;7.47;;;2.90;;
51636;SDS011;37713;53.254;6.460;2024-03-02T03:08:59;6.75;;;3.40;;
51636;SDS011;37713;53.254;6.460;2024-03-02T03:11:25;6.10;;;2.78;;
51636;SDS011;37713;53.254;6.460;2024-03-02T03:13:52;6.30;;;3.55;;
51636;SDS011;37713;53.254;6.460;2024-03-02T03:16:19;6.50;;;3.00;;
51636;SDS011;37713;53.254;6.460;2024-03-02T03:18:45;8.23;;;3.30;;
51636;SDS011;37713;53.254;6.460;2024-03-02T03:21:11;6.35;;;3.28;;
51636;SDS011;37713;53.254;6.460;2024-03-02T03:23:37;6.90;;;2.97;;
51636;SDS011;37713;53.254;6.460;2024-03-02T03:26:03;7.57;;;3.35;;
51636;SDS011;37713;53.254;6.460;2024-03-02T03:28:29;6.43;;;3.20;;
51636;SDS011;37713;53.254;6.460;2024-03-02T03:30:55;5.25;;;3.03;;
51636;SDS011;37713;53.254;6.460;2024-03-02T03:33:21;9.15;;;3.22;;
51636;SDS011;37713;53.254;6.460;2024-03-02T03:35:47;8.10;;;3.47;;
51636;SDS011;37713;53.254;6.460;2024-03-02T03:38:13;6.00;;;3.00;;
51636;SDS011;37713;53.254;6.460;2024-03-02T03:40:39;6.68;;;3.33;;
51636;SDS011;37713;53.254;6.460;2024-03-02T03:43:05;6.43;;;3.20;;
51636;SDS011;37713;53.254;6.460;2024-03-02T03:45:30;6.28;;;3.20;;
51636;SDS011;37713;53.254;6.460;2024-03-02T03:47:56;6.75;;;3.30;;
51636;SDS011;37713;53.254;6.460;2024-03-02T03:50:22;7.90;;;3.30;;
51636;SDS011;37713;53.254;6.460;2024-03-02T03:52:48;6.55;;;3.17;;
51636;SDS011;37713;53.254;6.460;2024-03-02T03:55:14;7.00;;;2.95;;
51636;SDS011;37713;53.254;6.460;2024-03-02T03:57:40;7.13;;;3.85;;
51636;SDS011;37713;53.254;6.460;2024-03-02T04:00:06;6.65;;;3.35;;
51636;SDS011;37713;53.254;6.460;2024-03-02T04:02:32;6.57;;;3.00;;
51636;SDS011;37713;53.254;6.460;2024-03-02T04:04:58;6.82;;;3.20;;
51636;SDS011;37713;53.254;6.460;2024-03-02T04:07:24;6.68;;;3.65;;
51636;SDS011;37713;53.254;6.460;2024-03-02T04:09:50;8.45;;;3.38;;
51636;SDS011;37713;53.254;6.460;2024-03-02T04:12:16;6.80;;;3.30;;
51636;SDS011;37713;53.254;6.460;2024-03-02T04:14:42;5.90;;;2.88;;
51636;SDS011;37713;53.254;6.460;2024-03-02T04:17:08;6.88;;;3.20;;
51636;SDS011;37713;53.254;6.460;2024-03-02T04:19:35;5.93;;;3.00;;
51636;SDS011;37713;53.254;6.460;2024-03-02T04:22:01;6.68;;;3.25;;
51636;SDS011;37713;53.254;6.460;2024-03-02T04:24:26;5.75;;;3.33;;
51636;SDS011;37713;53.254;6.460;2024-03-02T04:26:52;6.90;;;3.33;;
51636;SDS011;37713;53.254;6.460;2024-03-02T04:29:18;7.22;;;3.45;;
51636;SDS011;37713;53.254;6.460;2024-03-02T04:31:44;6.35;;;3.33;;
51636;SDS011;37713;53.254;6.460;2024-03-02T04:34:10;5.40;;;3.22;;
51636;SDS011;37713;53.254;6.460;2024-03-02T04:36:36;7.53;;;3.15;;
51636;SDS011;37713;53.254;6.460;2024-03-02T04:39:01;6.47;;;3.22;;
51636;SDS011;37713;53.254;6.460;2024-03-02T04:41:27;6.72;;;3.30;;
51636;SDS011;37713;53.254;6.460;2024-03-02T04:43:53;6.40;;;3.25;;
51636;SDS011;37713;53.254;6.460;2024-03-02T04:46:19;6.35;;;3.00;;
51636;SDS011;37713;53.254;6.460;2024-03-02T04:48:45;5.63;;;2.72;;
51636;SDS011;37713;53.254;6.460;2024-03-02T04:51:11;7.78;;;3.30;;
51636;SDS011;37713;53.254;6.460;2024-03-02T04:53:37;6.38;;;3.38;;
51636;SDS011;37713;53.254;6.460;2024-03-02T04:56:03;7.47;;;3.45;;
51636;SDS011;37713;53.254;6.460;2024-03-02T04:58:49;7.70;;;3.42;;
51636;SDS011;37713;53.254;6.460;2024-03-02T05:01:15;7.68;;;3.15;;
51636;SDS011;37713;53.254;6.460;2024-03-02T05:03:42;6.13;;;3.00;;
51636;SDS011;37713;53.254;6.460;2024-03-02T05:06:08;5.82;;;3.17;;
51636;SDS011;37713;53.254;6.460;2024-03-02T05:08:34;6.22;;;2.85;;
51636;SDS011;37713;53.254;6.460;2024-03-02T05:10:59;6.55;;;3.22;;
51636;SDS011;37713;53.254;6.460;2024-03-02T05:13:45;9.35;;;3.60;;
51636;SDS011;37713;53.254;6.460;2024-03-02T05:16:11;6.07;;;3.33;;
51636;SDS011;37713;53.254;6.460;2024-03-02T05:18:37;8.45;;;3.40;;
51636;SDS011;37713;53.254;6.460;2024-03-02T05:21:04;9.02;;;3.17;;
51636;SDS011;37713;53.254;6.460;2024-03-02T05:23:29;7.50;;;3.25;;
51636;SDS011;37713;53.254;6.460;2024-03-02T05:25:56;7.65;;;3.05;;
51636;SDS011;37713;53.254;6.460;2024-03-02T05:28:21;8.38;;;3.65;;
51636;SDS011;37713;53.254;6.460;2024-03-02T05:30:47;6.65;;;3.42;;
51636;SDS011;37713;53.254;6.460;2024-03-02T05:33:14;6.15;;;3.10;;
51636;SDS011;37713;53.254;6.460;2024-03-02T05:35:40;5.53;;;3.17;;
51636;SDS011;37713;53.254;6.460;2024-03-02T05:38:06;5.40;;;3.10;;
51636;SDS011;37713;53.254;6.460;2024-03-02T05:40:32;6.40;;;2.97;;
51636;SDS011;37713;53.254;6.460;2024-03-02T05:42:58;7.28;;;3.58;;
51636;SDS011;37713;53.254;6.460;2024-03-02T05:45:24;6.80;;;3.50;;
51636;SDS011;37713;53.254;6.460;2024-03-02T05:47:50;6.38;;;3.00;;
51636;SDS011;37713;53.254;6.460;2024-03-02T05:50:15;7.32;;;3.17;;
51636;SDS011;37713;53.254;6.460;2024-03-02T05:52:41;9.10;;;3.97;;
51636;SDS011;37713;53.254;6.460;2024-03-02T05:55:07;5.53;;;3.10;;
51636;SDS011;37713;53.254;6.460;2024-03-02T05:57:33;5.93;;;3.00;;
51636;SDS011;37713;53.254;6.460;2024-03-02T06:00:09;11.25;;;3.80;;
51636;SDS011;37713;53.254;6.460;2024-03-02T06:02:38;6.57;;;3.03;;
51636;SDS011;37713;53.254;6.460;2024-03-02T06:05:05;7.00;;;3.03;;
51636;SDS011;37713;53.254;6.460;2024-03-02T06:07:32;6.22;;;2.83;;
51636;SDS011;37713;53.254;6.460;2024-03-02T06:09:58;6.40;;;2.80;;
51636;SDS011;37713;53.254;6.460;2024-03-02T06:12:24;7.18;;;3.00;;
51636;SDS011;37713;53.254;6.460;2024-03-02T06:14:49;6.72;;;2.67;;
51636;SDS011;37713;53.254;6.460;2024-03-02T06:17:15;5.40;;;2.83;;
51636;SDS011;37713;53.254;6.460;2024-03-02T06:19:41;6.38;;;2.80;;
51636;SDS011;37713;53.254;6.460;2024-03-02T06:22:07;7.10;;;2.85;;
51636;SDS011;37713;53.254;6.460;2024-03-02T06:24:35;6.25;;;2.95;;
51636;SDS011;37713;53.254;6.460;2024-03-02T06:27:03;6.45;;;2.70;;
51636;SDS011;37713;53.254;6.460;2024-03-02T06:29:32;8.52;;;2.80;;
51636;SDS011;37713;53.254;6.460;2024-03-02T06:31:58;5.68;;;2.88;;
51636;SDS011;37713;53.254;6.460;2024-03-02T06:34:25;5.22;;;2.33;;
51636;SDS011;37713;53.254;6.460;2024-03-02T06:36:51;6.35;;;2.55;;
51636;SDS011;37713;53.254;6.460;2024-03-02T06:39:17;6.82;;;2.40;;
51636;SDS011;37713;53.254;6.460;2024-03-02T06:41:43;5.57;;;2.53;;
51636;SDS011;37713;53.254;6.460;2024-03-02T06:44:09;7.72;;;3.10;;
51636;SDS011;37713;53.254;6.460;2024-03-02T06:46:34;6.93;;;2.50;;
51636;SDS011;37713;53.254;6.460;2024-03-02T06:49:01;5.15;;;2.70;;
51636;SDS011;37713;53.254;6.460;2024-03-02T06:51:28;5.88;;;2.65;;
51636;SDS011;37713;53.254;6.460;2024-03-02T06:53:54;5.53;;;2.67;;
51636;SDS011;37713;53.254;6.460;2024-03-02T06:56:20;4.00;;;2.00;;
51636;SDS011;37713;53.254;6.460;2024-03-02T06:58:46;6.28;;;2.42;;
51636;SDS011;37713;53.254;6.460;2024-03-02T07:01:12;5.38;;;2.50;;
51636;SDS011;37713;53.254;6.460;2024-03-02T07:03:38;5.88;;;2.50;;
51636;SDS011;37713;53.254;6.460;2024-03-02T07:06:07;5.43;;;2.47;;
51636;SDS011;37713;53.254;6.460;2024-03-02T07:08:33;5.63;;;3.05;;
51636;SDS011;37713;53.254;6.460;2024-03-02T07:10:59;4.75;;;2.58;;
51636;SDS011;37713;53.254;6.460;2024-03-02T07:13:25;6.13;;;2.80;;
51636;SDS011;37713;53.254;6.460;2024-03-02T07:15:52;5.90;;;2.70;;
51636;SDS011;37713;53.254;6.460;2024-03-02T07:18:26;7.38;;;2.72;;
51636;SDS011;37713;53.254;6.460;2024-03-02T07:20:52;5.22;;;2.22;;
51636;SDS011;37713;53.254;6.460;2024-03-02T07:23:18;7.07;;;2.42;;
51636;SDS011;37713;53.254;6.460;2024-03-02T07:25:45;4.05;;;1.90;;
51636;SDS011;37713;53.254;6.460;2024-03-02T07:28:11;4.68;;;1.75;;
51636;SDS011;37713;53.254;6.460;2024-03-02T07:30:37;5.20;;;1.52;;
51636;SDS011;37713;53.254;6.460;2024-03-02T07:33:04;3.00;;;1.60;;
51636;SDS011;37713;53.254;6.460;2024-03-02T07:35:30;6.25;;;2.00;;
51636;SDS011;37713;53.254;6.460;2024-03-02T07:37:56;5.72;;;1.75;;
51636;SDS011;37713;53.254;6.460;2024-03-02T07:40:23;5.18;;;2.10;;
51636;SDS011;37713;53.254;6.460;2024-03-02T07:42:49;4.65;;;2.00;;
51636;SDS011;37713;53.254;6.460;2024-03-02T07:45:15;3.95;;;1.63;;
51636;SDS011;37713;53.254;6.460;2024-03-02T07:47:41;5.15;;;1.70;;
51636;SDS011;37713;53.254;6.460;2024-03-02T07:50:07;3.20;;;1.63;;
51636;SDS011;37713;53.254;6.460;2024-03-02T07:52:33;4.40;;;1.80;;
51636;SDS011;37713;53.254;6.460;2024-03-02T07:54:59;4.10;;;1.45;;
51636;SDS011;37713;53.254;6.460;2024-03-02T07:57:25;3.33;;;1.30;;
51636;SDS011;37713;53.254;6.460;2024-03-02T07:59:51;5.00;;;1.52;;
51636;SDS011;37713;53.254;6.460;2024-03-02T08:02:17;3.65;;;1.73;;
51636;SDS011;37713;53.254;6.460;2024-03-02T08:04:43;4.93;;;1.27;;
51636;SDS011;37713;53.254;6.460;2024-03-02T08:07:11;10.77;;;1.50;;
51636;SDS011;37713;53.254;6.460;2024-03-02T08:09:37;3.72;;;1.20;;
51636;SDS011;37713;53.254;6.460;2024-03-02T08:12:02;2.20;;;1.00;;
51636;SDS011;37713;53.254;6.460;2024-03-02T08:14:28;3.47;;;1.40;;
51636;SDS011;37713;53.254;6.460;2024-03-02T08:16:54;4.22;;;1.10;;
51636;SDS011;37713;53.254;6.460;2024-03-02T08:19:20;2.83;;;1.02;;
51636;SDS011;37713;53.254;6.460;2024-03-02T08:21:46;4.50;;;1.33;;
51636;SDS011;37713;53.254;6.460;2024-03-02T08:24:12;6.85;;;2.30;;
51636;SDS011;37713;53.254;6.460;2024-03-02T08:26:38;6.55;;;2.60;;
51636;SDS011;37713;53.254;6.460;2024-03-02T08:29:04;4.45;;;2.28;;
51636;SDS011;37713;53.254;6.460;2024-03-02T08:31:30;8.02;;;2.30;;
51636;SDS011;37713;53.254;6.460;2024-03-02T08:33:56;6.20;;;2.30;;
51636;SDS011;37713;53.254;6.460;2024-03-02T08:36:22;5.05;;;2.20;;
51636;SDS011;37713;53.254;6.460;2024-03-02T08:38:49;3.97;;;2.05;;
51636;SDS011;37713;53.254;6.460;2024-03-02T08:41:16;4.28;;;2.05;;
51636;SDS011;37713;53.254;6.460;2024-03-02T08:43:42;4.25;;;1.65;;
51636;SDS011;37713;53.254;6.460;2024-03-02T08:46:08;5.95;;;1.63;;
51636;SDS011;37713;53.254;6.460;2024-03-02T08:48:37;2.72;;;1.15;;
51636;SDS011;37713;53.254;6.460;2024-03-02T08:51:03;2.33;;;1.00;;
51636;SDS011;37713;53.254;6.460;2024-03-02T08:53:33;5.30;;;1.10;;
51636;SDS011;37713;53.254;6.460;2024-03-02T08:55:59;2.70;;;0.80;;
51636;SDS011;37713;53.254;6.460;2024-03-02T08:58:25;4.18;;;0.70;;
51636;SDS011;37713;53.254;6.460;2024-03-02T09:00:51;2.17;;;0.95;;
51636;SDS011;37713;53.254;6.460;2024-03-02T09:03:17;2.72;;;1.08;;
51636;SDS011;37713;53.254;6.460;2024-03-02T09:05:43;4.28;;;0.93;;
51636;SDS011;37713;53.254;6.460;2024-03-02T09:08:10;4.32;;;0.70;;
51636;SDS011;37713;53.254;6.460;2024-03-02T09:10:36;3.13;;;0.80;;
51636;SDS011;37713;53.254;6.460;2024-03-02T09:13:03;3.50;;;0.60;;
51636;SDS011;37713;53.254;6.460;2024-03-02T09:15:29;3.60;;;0.90;;
51636;SDS011;37713;53.254;6.460;2024-03-02T09:17:55;3.90;;;0.75;;
51636;SDS011;37713;53.254;6.460;2024-03-02T09:20:21;3.47;;;0.80;;
51636;SDS011;37713;53.254;6.460;2024-03-02T09:22:48;2.00;;;0.80;;
51636;SDS011;37713;53.254;6.460;2024-03-02T09:25:14;3.25;;;0.90;;
51636;SDS011;37713;53.254;6.460;2024-03-02T09:27:41;4.90;;;0.80;;
51636;SDS011;37713;53.254;6.460;2024-03-02T09:30:08;2.38;;;0.70;;
51636;SDS011;37713;53.254;6.460;2024-03-02T09:32:38;2.42;;;0.65;;
51636;SDS011;37713;53.254;6.460;2024-03-02T09:35:04;3.92;;;0.80;;
51636;SDS011;37713;53.254;6.460;2024-03-02T09:37:31;2.97;;;0.93;;
51636;SDS011;37713;53.254;6.460;2024-03-02T09:39:56;4.40;;;0.82;;
51636;SDS011;37713;53.254;6.460;2024-03-02T09:42:23;2.25;;;0.70;;
51636;SDS011;37713;53.254;6.460;2024-03-02T09:44:50;3.33;;;0.80;;
51636;SDS011;37713;53.254;6.460;2024-03-02T09:47:16;3.28;;;1.00;;
51636;SDS011;37713;53.254;6.460;2024-03-02T09:49:41;3.67;;;0.95;;
51636;SDS011;37713;53.254;6.460;2024-03-02T09:52:08;3.22;;;0.60;;
51636;SDS011;37713;53.254;6.460;2024-03-02T09:54:36;5.07;;;0.70;;
51636;SDS011;37713;53.254;6.460;2024-03-02T09:57:05;1.80;;;0.65;;
51636;SDS011;37713;53.254;6.460;2024-03-02T09:59:31;4.78;;;0.80;;
51636;SDS011;37713;53.254;6.460;2024-03-02T10:02:01;2.47;;;0.80;;
51636;SDS011;37713;53.254;6.460;2024-03-02T10:04:28;2.92;;;1.00;;
51636;SDS011;37713;53.254;6.460;2024-03-02T10:07:12;4.57;;;0.80;;
51636;SDS011;37713;53.254;6.460;2024-03-02T10:09:39;2.67;;;0.80;;
51636;SDS011;37713;53.254;6.460;2024-03-02T10:12:06;4.20;;;0.80;;
51636;SDS011;37713;53.254;6.460;2024-03-02T10:14:33;3.35;;;0.95;;
51636;SDS011;37713;53.254;6.460;2024-03-02T10:17:03;2.85;;;0.90;;
51636;SDS011;37713;53.254;6.460;2024-03-02T10:19:29;2.22;;;1.00;;
51636;SDS011;37713;53.254;6.460;2024-03-02T10:21:58;3.70;;;1.00;;
51636;SDS011;37713;53.254;6.460;2024-03-02T10:24:25;3.70;;;1.10;;
51636;SDS011;37713;53.254;6.460;2024-03-02T10:26:51;3.55;;;0.90;;
51636;SDS011;37713;53.254;6.460;2024-03-02T10:29:18;4.43;;;1.00;;
51636;SDS011;37713;53.254;6.460;2024-03-02T10:31:45;4.25;;;1.30;;
51636;SDS011;37713;53.254;6.460;2024-03-02T10:34:11;4.80;;;1.23;;
51636;SDS011;37713;53.254;6.460;2024-03-02T10:36:42;3.63;;;1.52;;
51636;SDS011;37713;53.254;6.460;2024-03-02T10:39:10;3.00;;;1.10;;
51636;SDS011;37713;53.254;6.460;2024-03-02T10:41:38;4.40;;;1.17;;
51636;SDS011;37713;53.254;6.460;2024-03-02T10:44:06;3.63;;;1.20;;
51636;SDS011;37713;53.254;6.460;2024-03-02T10:46:34;3.15;;;1.17;;
51636;SDS011;37713;53.254;6.460;2024-03-02T10:49:01;4.57;;;1.08;;
51636;SDS011;37713;53.254;6.460;2024-03-02T10:51:32;4.40;;;1.23;;
51636;SDS011;37713;53.254;6.460;2024-03-02T10:54:01;3.85;;;1.10;;
51636;SDS011;37713;53.254;6.460;2024-03-02T10:56:38;4.00;;;1.20;;
51636;SDS011;37713;53.254;6.460;2024-03-02T11:01:50;4.85;;;1.48;;
51636;SDS011;37713;53.254;6.460;2024-03-02T11:04:18;2.50;;;1.10;;
51636;SDS011;37713;53.254;6.460;2024-03-02T11:06:48;4.22;;;1.30;;
51636;SDS011;37713;53.254;6.460;2024-03-02T11:09:15;4.50;;;1.27;;
51636;SDS011;37713;53.254;6.460;2024-03-02T11:11:46;4.30;;;1.10;;
51636;SDS011;37713;53.254;6.460;2024-03-02T11:14:21;4.75;;;1.27;;
51636;SDS011;37713;53.254;6.460;2024-03-02T11:16:50;3.55;;;1.33;;
51636;SDS011;37713;53.254;6.460;2024-03-02T11:19:17;6.93;;;1.30;;
51636;SDS011;37713;53.254;6.460;2024-03-02T11:21:43;4.40;;;1.70;;
51636;SDS011;37713;53.254;6.460;2024-03-02T11:24:28;3.75;;;1.27;;
51636;SDS011;37713;53.254;6.460;2024-03-02T11:27:01;3.63;;;1.00;;
51636;SDS011;37713;53.254;6.460;2024-03-02T11:32:21;3.58;;;1.10;;
51636;SDS011;37713;53.254;6.460;2024-03-02T11:34:50;3.15;;;1.00;;
51636;SDS011;37713;53.254;6.460;2024-03-02T11:37:17;2.92;;;1.27;;
51636;SDS011;37713;53.254;6.460;2024-03-02T11:39:46;2.42;;;1.23;;
51636;SDS011;37713;53.254;6.460;2024-03-02T11:42:14;6.55;;;2.22;;
51636;SDS011;37713;53.254;6.460;2024-03-02T11:44:47;3.30;;;1.33;;
51636;SDS011;37713;53.254;6.460;2024-03-02T11:47:16;3.78;;;1.33;;
51636;SDS011;37713;53.254;6.460;2024-03-02T11:49:49;4.80;;;1.50;;
51636;SDS011;37713;53.254;6.460;2024-03-02T11:52:16;3.92;;;1.40;;
51636;SDS011;37713;53.254;6.460;2024-03-02T11:54:46;3.97;;;1.60;;
51636;SDS011;37713;53.254;6.460;2024-03-02T11:57:17;3.63;;;1.48;;
51636;SDS011;37713;53.254;6.460;2024-03-02T11:59:47;5.80;;;1.60;;
51636;SDS011;37713;53.254;6.460;2024-03-02T12:02:17;7.03;;;1.70;;
51636;SDS011;37713;53.254;6.460;2024-03-02T12:04:45;3.10;;;1.42;;
51636;SDS011;37713;53.254;6.460;2024-03-02T12:07:18;3.70;;;1.52;;
51636;SDS011;37713;53.254;6.460;2024-03-02T12:09:49;2.90;;;1.00;;
51636;SDS011;37713;53.254;6.460;2024-03-02T12:12:24;3.00;;;1.00;;
51636;SDS011;37713;53.254;6.460;2024-03-02T12:14:52;5.30;;;1.20;;
51636;SDS011;37713;53.254;6.460;2024-03-02T12:17:20;5.40;;;1.50;;
51636;SDS011;37713;53.254;6.460;2024-03-02T12:19:46;3.58;;;1.30;;
51636;SDS011;37713;53.254;6.460;2024-03-02T12:22:12;3.78;;;1.25;;
51636;SDS011;37713;53.254;6.460;2024-03-02T12:24:38;2.38;;;1.10;;
51636;SDS011;37713;53.254;6.460;2024-03-02T12:27:05;3.78;;;1.30;;
51636;SDS011;37713;53.254;6.460;2024-03-02T12:29:32;4.68;;;1.45;;
51636;SDS011;37713;53.254;6.460;2024-03-02T12:31:59;5.57;;;1.45;;
51636;SDS011;37713;53.254;6.460;2024-03-02T12:34:27;6.90;;;1.48;;
51636;SDS011;37713;53.254;6.460;2024-03-02T12:36:53;2.50;;;1.00;;
51636;SDS011;37713;53.254;6.460;2024-03-02T12:39:19;3.72;;;1.10;;
51636;SDS011;37713;53.254;6.460;2024-03-02T12:41:46;4.93;;;1.13;;
51636;SDS011;37713;53.254;6.460;2024-03-02T12:44:12;3.90;;;1.27;;
51636;SDS011;37713;53.254;6.460;2024-03-02T12:46:37;2.15;;;0.80;;
51636;SDS011;37713;53.254;6.460;2024-03-02T12:49:10;1.67;;;0.70;;
51636;SDS011;37713;53.254;6.460;2024-03-02T12:51:37;5.45;;;1.10;;
51636;SDS011;37713;53.254;6.460;2024-03-02T12:54:08;5.95;;;1.67;;
51636;SDS011;37713;53.254;6.460;2024-03-02T12:56:35;3.65;;;1.33;;
51636;SDS011;37713;53.254;6.460;2024-03-02T12:59:10;5.13;;;1.30;;
51636;SDS011;37713;53.254;6.460;2024-03-02T13:01:54;3.17;;;1.10;;
51636;SDS011;37713;53.254;6.460;2024-03-02T13:04:26;3.42;;;1.20;;
51636;SDS011;37713;53.254;6.460;2024-03-02T13:06:54;3.42;;;0.98;;
51636;SDS011;37713;53.254;6.460;2024-03-02T13:09:21;4.00;;;1.10;;
51636;SDS011;37713;53.254;6.460;2024-03-02T13:11:48;2.78;;;0.95;;
51636;SDS011;37713;53.254;6.460;2024-03-02T13:14:14;3.58;;;1.13;;
51636;SDS011;37713;53.254;6.460;2024-03-02T13:16:40;4.38;;;1.10;;
51636;SDS011;37713;53.254;6.460;2024-03-02T13:19:10;4.20;;;1.10;;
51636;SDS011;37713;53.254;6.460;2024-03-02T13:21:37;4.43;;;1.20;;
51636;SDS011;37713;53.254;6.460;2024-03-02T13:24:03;3.83;;;1.27;;
51636;SDS011;37713;53.254;6.460;2024-03-02T13:26:30;5.65;;;1.45;;
51636;SDS011;37713;53.254;6.460;2024-03-02T13:28:56;5.07;;;1.30;;
51636;SDS011;37713;53.254;6.460;2024-03-02T13:31:22;3.75;;;1.38;;
51636;SDS011;37713;53.254;6.460;2024-03-02T13:33:48;3.53;;;1.58;;
51636;SDS011;37713;53.254;6.460;2024-03-02T13:36:13;3.90;;;1.65;;
51636;SDS011;37713;53.254;6.460;2024-03-02T13:38:39;3.65;;;1.75;;
51636;SDS011;37713;53.254;6.460;2024-03-02T13:41:05;4.45;;;1.80;;
51636;SDS011;37713;53.254;6.460;2024-03-02T13:43:31;4.97;;;2.58;;
51636;SDS011;37713;53.254;6.460;2024-03-02T13:46:01;4.45;;;2.53;;
51636;SDS011;37713;53.254;6.460;2024-03-02T13:50:53;7.20;;;3.00;;
51636;SDS011;37713;53.254;6.460;2024-03-02T13:53:19;6.00;;;3.30;;
51636;SDS011;37713;53.254;6.460;2024-03-02T13:55:45;6.95;;;3.72;;
51636;SDS011;37713;53.254;6.460;2024-03-02T13:58:11;6.40;;;4.13;;
51636;SDS011;37713;53.254;6.460;2024-03-02T14:00:37;8.25;;;4.43;;
51636;SDS011;37713;53.254;6.460;2024-03-02T14:03:04;8.50;;;4.25;;
51636;SDS011;37713;53.254;6.460;2024-03-02T14:05:32;6.65;;;4.55;;
51636;SDS011;37713;53.254;6.460;2024-03-02T14:07:58;8.13;;;4.22;;
51636;SDS011;37713;53.254;6.460;2024-03-02T14:10:27;7.00;;;4.63;;
51636;SDS011;37713;53.254;6.460;2024-03-02T14:12:54;7.88;;;4.63;;
51636;SDS011;37713;53.254;6.460;2024-03-02T14:15:20;8.23;;;4.10;;
51636;SDS011;37713;53.254;6.460;2024-03-02T14:17:47;8.23;;;4.28;;
51636;SDS011;37713;53.254;6.460;2024-03-02T14:20:13;7.95;;;4.70;;
51636;SDS011;37713;53.254;6.460;2024-03-02T14:22:39;7.18;;;4.38;;
51636;SDS011;37713;53.254;6.460;2024-03-02T14:25:05;10.02;;;4.97;;
51636;SDS011;37713;53.254;6.460;2024-03-02T14:27:31;7.35;;;4.40;;
51636;SDS011;37713;53.254;6.460;2024-03-02T14:29:57;7.97;;;3.90;;
51636;SDS011;37713;53.254;6.460;2024-03-02T14:32:23;7.90;;;3.95;;
51636;SDS011;37713;53.254;6.460;2024-03-02T14:34:49;8.52;;;4.32;;
51636;SDS011;37713;53.254;6.460;2024-03-02T14:37:15;5.55;;;3.60;;
51636;SDS011;37713;53.254;6.460;2024-03-02T14:39:41;7.40;;;3.75;;
51636;SDS011;37713;53.254;6.460;2024-03-02T14:42:07;7.88;;;3.40;;
51636;SDS011;37713;53.254;6.460;2024-03-02T14:44:33;6.13;;;3.40;;
51636;SDS011;37713;53.254;6.460;2024-03-02T14:47:00;5.22;;;2.72;;
51636;SDS011;37713;53.254;6.460;2024-03-02T14:49:28;4.80;;;2.50;;
51636;SDS011;37713;53.254;6.460;2024-03-02T14:51:54;5.75;;;2.40;;
51636;SDS011;37713;53.254;6.460;2024-03-02T14:54:20;4.15;;;1.98;;
51636;SDS011;37713;53.254;6.460;2024-03-02T14:56:46;7.32;;;2.30;;
51636;SDS011;37713;53.254;6.460;2024-03-02T14:59:12;6.22;;;2.42;;